Time;durP1;ratioP1;P1;durP2;ratioP2;P2;SDS_P1;SDS_P2;PMS_P1;PMS_P2;Temp;Humidity;BMP_temperature;BMP_pressure;BME280_temperature;BME280_humidity;BME280_pressure;Samples;Min_cycle;Max_cycle;Signal;HPM_P1;HPM_P2
2022/12/07 00:01:17;;;;;;;2.03;1.23;;;;;;;-7.94;49.17;100693.94;4977969;28;20044;-66
2022/12/07 00:03:45;;;;;;;4.75;3.22;;;;;;;-8.26;49.32;100693.28;4975488;28;20925;-63
2022/12/07 00:06:11;;;;;;;6.72;4.03;;;;;;;-8.16;48.78;100698.69;4977676;28;20050;-65
2022/12/07 00:08:37;;;;;;;3.95;2.30;;;;;;;-8.16;49.98;100693.50;4983145;28;20042;-64
2022/12/07 00:11:06;;;;;;;4.80;2.80;;;;;;;-7.95;48.52;100698.25;4959862;28;20038;-65
2022/12/07 00:13:32;;;;;;;8.20;4.10;;;;;;;-8.23;48.67;100694.22;4978605;28;20046;-64
2022/12/07 00:16:01;;;;;;;6.80;4.00;;;;;;;-8.19;49.06;100692.56;4962588;28;20029;-65
2022/12/07 00:18:26;;;;;;;5.95;2.83;;;;;;;-8.41;49.91;100693.00;4980448;28;20049;-64
2022/12/07 00:20:50;;;;;;;9.73;4.13;;;;;;;-8.33;49.34;100691.44;4942225;28;20034;-63
2022/12/07 00:23:15;;;;;;;6.35;2.67;;;;;;;-8.25;49.08;100684.69;4963550;28;20037;-64
2022/12/07 00:25:40;;;;;;;7.72;3.75;;;;;;;-8.34;49.66;100695.72;4962736;28;20040;-64
2022/12/07 00:28:05;;;;;;;4.32;3.00;;;;;;;-8.21;49.21;100678.72;4982189;28;20054;-63
2022/12/07 00:30:29;;;;;;;8.65;4.63;;;;;;;-8.49;50.00;100692.84;4968657;28;20044;-63
2022/12/07 00:32:54;;;;;;;9.38;5.07;;;;;;;-8.55;49.97;100692.69;4979562;28;20057;-63
2022/12/07 00:35:18;;;;;;;8.23;4.53;;;;;;;-8.61;50.28;100690.84;4996352;28;20041;-65
2022/12/07 00:37:43;;;;;;;6.90;3.85;;;;;;;-8.65;50.25;100695.91;4963636;28;20033;-65
2022/12/07 00:40:08;;;;;;;7.60;4.43;;;;;;;-8.57;50.47;100684.91;4997821;28;20494;-67
2022/12/07 00:42:33;;;;;;;8.90;3.92;;;;;;;-8.39;49.64;100684.44;4992646;28;20045;-64
2022/12/07 00:44:57;;;;;;;7.03;3.10;;;;;;;-8.21;49.58;100687.34;4946018;28;20578;-65
2022/12/07 00:47:22;;;;;;;6.32;3.25;;;;;;;-8.18;49.35;100687.44;4972504;28;20457;-65
2022/12/07 00:49:47;;;;;;;6.30;2.90;;;;;;;-8.06;48.67;100689.38;4991509;28;20037;-63
2022/12/07 00:52:11;;;;;;;5.65;2.25;;;;;;;-8.24;49.21;100692.47;4976788;28;20081;-64
2022/12/07 00:54:36;;;;;;;6.85;2.67;;;;;;;-8.12;48.93;100691.84;4995135;28;20067;-64
2022/12/07 00:57:00;;;;;;;5.45;3.65;;;;;;;-8.00;48.42;100689.50;4965253;28;20049;-64
2022/12/07 00:59:25;;;;;;;6.93;4.20;;;;;;;-8.25;49.06;100682.09;4991320;28;20033;-64
2022/12/07 01:01:49;;;;;;;6.97;3.05;;;;;;;-8.37;49.16;100687.06;4997696;28;20041;-63
2022/12/07 01:04:14;;;;;;;8.57;5.13;;;;;;;-8.60;49.82;100684.84;4952445;28;20103;-63
2022/12/07 01:06:39;;;;;;;9.38;5.03;;;;;;;-8.75;49.73;100688.78;4977205;28;20038;-65
2022/12/07 01:09:04;;;;;;;6.78;3.95;;;;;;;-8.47;50.38;100694.63;4960031;28;20225;-65
2022/12/07 01:11:30;;;;;;;4.05;2.80;;;;;;;-8.26;49.63;100683.81;4979758;28;20116;-64
2022/12/07 01:13:56;;;;;;;8.05;4.88;;;;;;;-8.38;49.34;100686.19;4997108;28;20511;-64
2022/12/07 01:16:23;;;;;;;7.22;4.20;;;;;;;-8.60;49.85;100681.38;4996984;28;20041;-63
2022/12/07 01:18:50;;;;;;;9.02;4.60;;;;;;;-8.56;49.74;100684.06;4974485;28;20062;-64
2022/12/07 01:21:18;;;;;;;5.10;3.17;;;;;;;-8.44;50.28;100684.31;4996983;28;20045;-64
2022/12/07 01:23:43;;;;;;;7.05;4.25;;;;;;;-8.62;49.71;100672.72;4996832;28;20033;-65
2022/12/07 01:26:11;;;;;;;6.00;2.42;;;;;;;-8.52;49.58;100678.13;4981730;28;20404;-64
2022/12/07 01:28:36;;;;;;;4.60;2.83;;;;;;;-8.59;50.50;100684.00;4981101;28;20037;-65
2022/12/07 01:31:05;;;;;;;4.57;2.83;;;;;;;-8.76;50.26;100690.50;4981484;28;20052;-64
2022/12/07 01:33:33;;;;;;;6.85;3.38;;;;;;;-8.68;50.60;100668.28;4992067;28;20080;-64
2022/12/07 01:36:24;;;;;;;10.02;3.22;;;;;;;-8.51;50.10;100672.13;4976515;28;20507;-73
2022/12/07 01:38:53;;;;;;;7.38;3.97;;;;;;;-8.81;50.07;100680.09;4978467;28;20553;-73
2022/12/07 01:41:19;;;;;;;9.57;3.28;;;;;;;-8.85;50.92;100661.88;4998078;28;20072;-72
2022/12/07 01:44:14;;;;;;;10.73;4.82;;;;;;;-8.77;51.28;100665.50;4997515;28;20053;-75
2022/12/07 01:46:41;;;;;;;12.85;6.05;;;;;;;-8.80;50.52;100674.03;4997724;28;20056;-74
2022/12/07 01:49:09;;;;;;;8.13;4.60;;;;;;;-8.79;50.36;100667.16;4979467;28;20048;-72
2022/12/07 01:51:37;;;;;;;10.43;4.22;;;;;;;-8.99;51.17;100663.25;4978252;28;20037;-72
2022/12/07 01:54:02;;;;;;;7.68;2.90;;;;;;;-8.79;51.06;100659.41;4957333;28;20042;-71
2022/12/07 01:56:29;;;;;;;13.63;5.90;;;;;;;-9.10;50.67;100655.28;4966514;28;20110;-73
2022/12/07 01:58:56;;;;;;;8.95;5.45;;;;;;;-9.09;51.49;100641.53;5004138;28;20034;-73
2022/12/07 02:01:21;;;;;;;7.72;3.60;;;;;;;-8.81;51.08;100653.38;4978032;28;20053;-71
2022/12/07 02:03:46;;;;;;;7.97;4.28;;;;;;;-9.02;51.18;100652.84;5001473;28;20041;-74
2022/12/07 02:06:14;;;;;;;9.07;4.53;;;;;;;-9.12;51.05;100649.19;4975747;28;20072;-72
2022/12/07 02:08:40;;;;;;;7.57;3.78;;;;;;;-8.99;51.63;100652.94;4991921;28;20503;-72
2022/12/07 02:11:07;;;;;;;11.68;4.85;;;;;;;-9.07;51.16;100638.97;4978980;28;20429;-72
2022/12/07 02:13:35;;;;;;;8.38;4.78;;;;;;;-9.03;51.71;100643.38;4974670;28;20431;-72
2022/12/07 02:16:05;;;;;;;4.35;2.75;;;;;;;-8.85;51.60;100636.91;4995702;28;20052;-74
2022/12/07 02:18:32;;;;;;;9.23;3.92;;;;;;;-8.88;50.84;100643.72;4978833;28;20503;-73
2022/12/07 02:21:15;;;;;;;9.30;4.85;;;;;;;-8.88;50.77;100642.00;4996051;28;20045;-72
2022/12/07 02:23:50;;;;;;;5.18;2.75;;;;;;;-8.63;50.37;100639.97;4966451;28;20128;-74
2022/12/07 02:26:47;;;;;;;9.82;4.05;;;;;;;-9.06;50.81;100640.72;4961876;28;20041;-75
2022/12/07 02:29:18;;;;;;;6.10;3.67;;;;;;;-8.87;51.28;100645.47;5001287;28;20427;-74
2022/12/07 02:31:50;;;;;;;3.42;2.10;;;;;;;-8.68;50.73;100639.84;4995542;28;20136;-74
2022/12/07 02:34:33;;;;;;;5.97;3.72;;;;;;;-8.74;50.88;100633.69;4979502;28;20064;-74
2022/12/07 02:37:08;;;;;;;8.25;5.13;;;;;;;-8.95;50.67;100631.50;4984722;28;20037;-74
2022/12/07 02:39:53;;;;;;;4.63;3.30;;;;;;;-8.94;51.18;100628.97;4996115;28;20076;-74
2022/12/07 02:42:27;;;;;;;2.35;1.23;;;;;;;-8.62;51.15;100633.97;4995342;28;20439;-75
2022/12/07 02:44:52;;;;;;;12.10;4.88;;;;;;;-8.83;50.18;100637.81;4996420;28;20500;-74
2022/12/07 02:47:20;;;;;;;11.63;4.03;;;;;;;-8.72;50.16;100632.00;4996590;28;20828;-73
2022/12/07 02:49:45;;;;;;;12.48;5.15;;;;;;;-8.89;51.00;100635.09;4996561;28;20589;-75
2022/12/07 02:52:10;;;;;;;6.90;3.60;;;;;;;-8.77;51.07;100633.63;4996478;28;20041;-74
2022/12/07 02:54:34;;;;;;;9.00;4.85;;;;;;;-8.89;51.26;100618.72;4994851;28;20083;-75
2022/12/07 02:57:14;;;;;;;10.98;4.10;;;;;;;-8.92;51.41;100634.16;4996277;28;20049;-74
2022/12/07 03:00:05;;;;;;;6.07;3.60;;;;;;;-9.03;51.41;100640.81;4996004;28;20041;-73
2022/12/07 03:02:51;;;;;;;9.27;4.60;;;;;;;-9.13;52.19;100636.25;4973521;28;20140;-65
2022/12/07 03:05:43;;;;;;;13.73;5.80;;;;;;;-9.21;52.18;100636.94;4940522;28;20065;-64
2022/12/07 03:08:33;;;;;;;8.27;4.97;;;;;;;-9.25;52.99;100629.94;4973606;28;20050;-65
2022/12/07 03:11:05;;;;;;;6.72;2.95;;;;;;;-9.14;52.89;100630.19;4922239;28;20053;-63
2022/12/07 03:13:54;;;;;;;8.35;4.97;;;;;;;-9.12;52.02;100633.69;4973608;28;20052;-63
2022/12/07 03:16:27;;;;;;;11.48;4.20;;;;;;;-9.19;52.38;100627.53;4945935;28;20060;-62
2022/12/07 03:19:02;;;;;;;14.35;6.30;;;;;;;-9.27;52.51;100649.72;4972558;28;20049;-63
2022/12/07 03:21:52;;;;;;;6.65;3.03;;;;;;;-9.12;52.03;100632.81;4945730;28;20526;-65
2022/12/07 03:24:24;;;;;;;12.38;3.25;;;;;;;-9.15;52.33;100632.78;4952988;28;20058;-63
2022/12/07 03:26:55;;;;;;;3.80;2.55;;;;;;;-8.98;51.88;100629.72;4973811;28;20548;-65
2022/12/07 03:29:26;;;;;;;2.55;2.33;;;;;;;-9.07;52.00;100618.31;4960409;28;20468;-64
2022/12/07 03:31:59;;;;;;;7.82;4.03;;;;;;;-9.20;53.17;100625.78;4973192;28;20042;-65
2022/12/07 03:34:36;;;;;;;8.15;3.42;;;;;;;-9.43;53.19;100624.34;4961288;28;20049;-64
2022/12/07 03:37:05;;;;;;;12.85;6.03;;;;;;;-9.39;53.67;100622.72;4995067;28;20049;-64
2022/12/07 03:39:36;;;;;;;13.65;4.88;;;;;;;-9.38;53.37;100617.63;4977384;28;20128;-64
2022/12/07 03:42:04;;;;;;;9.20;5.07;;;;;;;-9.37;53.19;100628.81;4994486;28;20503;-64
2022/12/07 03:44:29;;;;;;;4.65;3.15;;;;;;;-9.28;53.13;100624.72;4960770;28;20372;-64
2022/12/07 03:47:16;;;;;;;8.73;4.22;;;;;;;-9.28;53.89;100629.91;4993862;28;20398;-65
2022/12/07 03:49:45;;;;;;;9.13;4.72;;;;;;;-9.26;53.72;100632.53;4996998;28;20073;-65
2022/12/07 03:52:30;;;;;;;13.63;5.60;;;;;;;-9.50;53.92;100616.44;4961685;28;20116;-64
2022/12/07 03:55:15;;;;;;;;;;;;;;;-9.40;54.29;100618.41;4983769;28;20415;-63
2022/12/07 03:57:42;;;;;;;9.45;4.93;;;;;;;-9.41;54.71;100611.50;4977471;28;19924;-63
2022/12/07 04:00:09;;;;;;;10.57;3.55;;;;;;;-9.42;54.12;100613.19;4962410;28;20049;-64
2022/12/07 04:02:38;;;;;;;2.45;1.75;;;;;;;-9.06;53.64;100605.44;4995382;28;20041;-65
2022/12/07 04:05:03;;;;;;;8.30;3.55;;;;;;;-9.03;52.93;100620.16;4975114;28;20054;-63
2022/12/07 04:07:28;;;;;;;2.55;1.88;;;;;;;-9.27;53.59;100604.97;4969877;28;20044;-63
2022/12/07 04:09:54;;;;;;;6.90;4.55;;;;;;;-9.34;54.08;100616.81;4974339;28;20061;-62
2022/12/07 04:12:19;;;;;;;3.63;1.88;;;;;;;-9.20;54.16;100609.41;4986052;28;20056;-65
2022/12/07 04:14:43;;;;;;;5.38;3.42;;;;;;;-9.20;53.53;100604.25;4996273;28;20049;-66
2022/12/07 04:17:08;;;;;;;3.20;1.92;;;;;;;-9.06;54.18;100605.44;4943304;28;20034;-66
2022/12/07 04:19:34;;;;;;;9.85;2.53;;;;;;;-9.19;53.96;100606.00;4933833;28;20069;-66
2022/12/07 04:22:00;;;;;;;9.18;4.50;;;;;;;-9.06;54.51;100613.19;4960868;28;20048;-66
2022/12/07 04:24:26;;;;;;;7.57;3.80;;;;;;;-9.11;54.07;100593.25;4995733;28;20107;-69
2022/12/07 04:26:50;;;;;;;7.05;3.38;;;;;;;-9.07;53.91;100607.97;4979307;28;20503;-70
2022/12/07 04:29:16;;;;;;;4.20;2.47;;;;;;;-8.74;53.81;100595.81;4998131;28;20053;-69
2022/12/07 04:31:41;;;;;;;6.00;3.42;;;;;;;-8.89;54.44;100603.22;4963829;28;20041;-70
2022/12/07 04:34:06;;;;;;;8.90;4.68;;;;;;;-8.98;53.82;100608.19;4960569;28;20099;-71
2022/12/07 04:36:31;;;;;;;5.70;2.85;;;;;;;-8.88;54.06;100604.97;4986906;28;20124;-71
2022/12/07 04:38:56;;;;;;;2.83;2.10;;;;;;;-9.01;54.78;100592.59;4995949;28;20152;-70
2022/12/07 04:41:26;;;;;;;8.23;4.32;;;;;;;-9.08;55.19;100595.91;4979356;28;20143;-71
2022/12/07 04:43:51;;;;;;;5.43;3.10;;;;;;;-9.10;54.99;100592.41;4996766;28;20044;-72
2022/12/07 04:46:15;;;;;;;5.18;3.22;;;;;;;-9.11;55.90;100591.53;5001188;28;20041;-71
2022/12/07 04:48:40;;;;;;;11.00;5.00;;;;;;;-9.22;55.90;100591.28;4999294;28;20136;-72
2022/12/07 04:51:05;;;;;;;11.27;4.60;;;;;;;-9.17;56.29;100602.63;4964674;28;20045;-71
2022/12/07 04:53:30;;;;;;;3.65;1.95;;;;;;;-9.04;55.82;100600.31;4973094;28;20118;-71
2022/12/07 04:55:54;;;;;;;4.30;2.78;;;;;;;-9.01;55.39;100596.06;4968860;28;20100;-74
2022/12/07 04:58:19;;;;;;;7.60;3.90;;;;;;;-8.93;55.36;100604.00;4980966;28;20581;-71
2022/12/07 05:00:43;;;;;;;9.45;3.13;;;;;;;-8.72;54.77;100594.13;4993067;28;20153;-72
2022/12/07 05:03:08;;;;;;;5.53;2.85;;;;;;;-8.54;54.25;100602.25;4999098;28;20045;-74
2022/12/07 05:05:33;;;;;;;6.55;4.25;;;;;;;-8.57;54.82;100594.41;4999983;28;20077;-73
2022/12/07 05:07:57;;;;;;;2.95;1.85;;;;;;;-8.40;54.11;100594.78;5000337;28;20045;-71
2022/12/07 05:10:22;;;;;;;4.85;2.78;;;;;;;-8.52;54.86;100595.41;4999765;28;20049;-75
2022/12/07 05:12:47;;;;;;;5.50;3.17;;;;;;;-8.51;54.88;100606.63;4981995;28;20048;-71
2022/12/07 05:15:13;;;;;;;6.90;3.55;;;;;;;-8.56;55.04;100598.75;5000517;28;20144;-72
2022/12/07 05:17:38;;;;;;;2.08;1.40;;;;;;;-8.60;54.42;100602.13;4985970;28;20041;-71
2022/12/07 05:20:03;;;;;;;5.68;3.30;;;;;;;-8.83;56.15;100600.78;4984444;28;20041;-71
2022/12/07 05:22:28;;;;;;;5.82;3.40;;;;;;;-8.82;56.04;100607.69;5001361;28;20075;-71
2022/12/07 05:24:52;;;;;;;7.50;2.38;;;;;;;-8.67;55.51;100600.25;4983451;28;20085;-71
2022/12/07 05:27:17;;;;;;;3.30;1.90;;;;;;;-8.65;55.09;100601.16;4983150;28;20045;-71
2022/12/07 05:29:41;;;;;;;11.13;4.32;;;;;;;-8.62;55.86;100600.34;4984149;28;20037;-70
2022/12/07 05:32:06;;;;;;;7.40;4.05;;;;;;;-8.62;55.94;100598.66;4999663;28;20048;-72
2022/12/07 05:34:31;;;;;;;2.53;1.92;;;;;;;-8.53;55.26;100598.81;4998084;28;20152;-69
2022/12/07 05:36:55;;;;;;;3.63;1.75;;;;;;;-8.61;55.29;100599.50;4992376;28;20056;-69
2022/12/07 05:39:20;;;;;;;7.30;4.70;;;;;;;-8.66;56.20;100593.38;4980073;28;20519;-69
2022/12/07 05:44:28;;;;;;;6.60;4.30;;;;;;;-8.81;56.24;100597.41;4998597;28;20045;-71
2022/12/07 05:46:52;;;;;;;4.03;2.92;;;;;;;-8.79;56.70;100599.97;4981627;28;20096;-73
2022/12/07 05:49:17;;;;;;;7.32;3.92;;;;;;;-8.88;56.75;100592.91;4965913;28;20034;-74
2022/12/07 05:51:42;;;;;;;5.05;3.15;;;;;;;-8.69;57.05;100588.16;5000938;28;20045;-76
2022/12/07 05:54:07;;;;;;;7.22;3.65;;;;;;;-8.71;56.48;100585.53;4982425;28;20048;-70
2022/12/07 05:56:31;;;;;;;5.75;3.63;;;;;;;-8.70;57.44;100589.88;5000426;28;20049;-70
2022/12/07 06:01:40;;;;;;;3.75;2.67;;;;;;;-8.77;57.59;100579.34;4983358;28;20490;-70
2022/12/07 06:04:04;;;;;;;3.67;2.67;;;;;;;-8.69;57.35;100581.25;4967732;28;20048;-73
2022/12/07 06:06:29;;;;;;;4.93;2.80;;;;;;;-8.59;56.78;100579.75;4977928;28;20050;-72
2022/12/07 06:08:55;;;;;;;2.50;1.63;;;;;;;-8.30;57.19;100575.09;4983471;28;20044;-74
2022/12/07 06:14:03;;;;;;;3.97;1.65;;;;;;;-8.19;56.71;100597.72;4979866;28;20050;-72
2022/12/07 06:16:28;;;;;;;6.03;3.22;;;;;;;-8.25;57.03;100599.34;4961883;28;20099;-69
2022/12/07 06:18:52;;;;;;;7.85;3.75;;;;;;;-8.31;56.99;100589.75;4959245;28;20563;-69
2022/12/07 06:21:17;;;;;;;8.73;4.38;;;;;;;-8.28;57.55;100589.81;4959936;28;20048;-71
2022/12/07 06:23:41;;;;;;;8.85;3.08;;;;;;;-8.35;57.72;100592.28;4933681;28;20034;-71
2022/12/07 06:26:06;;;;;;;6.93;3.97;;;;;;;-8.36;57.55;100581.06;4981896;28;20109;-69
2022/12/07 06:28:30;;;;;;;3.38;1.55;;;;;;;-8.29;58.27;100587.19;4959778;28;20055;-70
2022/12/07 06:30:59;;;;;;;5.80;3.05;;;;;;;-8.25;57.38;100604.53;4977300;28;20065;-70
2022/12/07 06:33:24;;;;;;;1.58;1.30;;;;;;;-8.15;57.83;100596.09;4977380;28;20530;-70
2022/12/07 06:35:48;;;;;;;6.35;4.45;;;;;;;-8.17;57.76;100588.28;4977271;28;20496;-72
2022/12/07 06:38:13;;;;;;;9.15;4.38;;;;;;;-8.32;58.05;100592.31;4978250;28;20057;-70
2022/12/07 06:40:38;;;;;;;2.63;2.08;;;;;;;-8.09;58.16;100591.00;4976945;28;20524;-73
2022/12/07 06:43:02;;;;;;;7.35;3.75;;;;;;;-8.14;57.81;100588.38;4975654;28;20503;-70
2022/12/07 06:45:27;;;;;;;7.10;4.47;;;;;;;-8.08;57.90;100596.22;4977172;28;20148;-69
2022/12/07 06:47:51;;;;;;;3.17;2.50;;;;;;;-7.95;57.63;100589.56;4986923;28;20041;-71
2022/12/07 06:50:16;;;;;;;4.88;3.33;;;;;;;-8.22;57.47;100582.16;4990643;28;20065;-73
2022/12/07 06:52:41;;;;;;;9.70;4.88;;;;;;;-8.37;58.25;100581.91;4987337;28;20076;-70
2022/12/07 06:55:06;;;;;;;4.90;2.97;;;;;;;-8.21;58.43;100580.44;4954259;28;20041;-69
2022/12/07 06:57:30;;;;;;;6.18;3.70;;;;;;;-8.22;57.69;100583.88;4953576;28;20041;-69
2022/12/07 06:59:55;;;;;;;4.70;3.13;;;;;;;-8.22;58.52;100591.63;4987634;28;20046;-68
2022/12/07 07:02:20;;;;;;;8.45;3.72;;;;;;;-8.33;58.82;100585.41;4946523;28;20046;-68
2022/12/07 07:04:44;;;;;;;6.97;3.58;;;;;;;-8.23;58.74;100588.16;4989642;28;20113;-68
2022/12/07 07:07:09;;;;;;;7.40;3.63;;;;;;;-8.26;58.34;100597.59;5000603;28;20102;-70
2022/12/07 07:09:34;;;;;;;8.18;4.75;;;;;;;-8.12;58.12;100590.94;4974206;28;20045;-68
2022/12/07 07:11:58;;;;;;;6.70;4.15;;;;;;;-8.16;58.22;100590.03;5007078;28;20041;-69
2022/12/07 07:14:23;;;;;;;6.20;2.60;;;;;;;-8.10;58.19;100584.09;4988155;28;20096;-70
2022/12/07 07:16:47;;;;;;;7.53;4.10;;;;;;;-8.16;57.78;100586.59;5004037;28;20033;-69
2022/12/07 07:19:12;;;;;;;5.20;2.95;;;;;;;-8.02;58.13;100597.19;5003576;28;20048;-71
2022/12/07 07:21:37;;;;;;;6.30;3.15;;;;;;;-7.97;57.64;100590.38;5001809;28;20128;-70
2022/12/07 07:24:01;;;;;;;6.38;3.90;;;;;;;-7.96;57.61;100599.88;4969805;28;20065;-71
2022/12/07 07:26:26;;;;;;;2.88;2.35;;;;;;;-8.03;58.03;100580.78;5001740;28;20032;-71
2022/12/07 07:28:50;;;;;;;10.68;3.65;;;;;;;-7.98;58.08;100586.91;5008795;28;20057;-70
2022/12/07 07:31:15;;;;;;;7.90;4.93;;;;;;;-7.94;57.49;100586.13;5007451;28;20044;-71
2022/12/07 07:33:40;;;;;;;9.73;4.30;;;;;;;-7.87;57.47;100575.03;5003169;28;20045;-69
2022/12/07 07:36:05;;;;;;;9.43;4.35;;;;;;;-7.85;57.36;100572.47;4973660;28;20060;-68
2022/12/07 07:38:29;;;;;;;11.68;5.03;;;;;;;-7.79;57.11;100576.06;4989759;28;20037;-68
2022/12/07 07:40:54;;;;;;;10.18;4.70;;;;;;;-7.74;57.47;100570.94;4961433;28;20053;-68
2022/12/07 07:43:18;;;;;;;10.75;5.15;;;;;;;-7.64;57.22;100564.19;4987811;28;20041;-71
2022/12/07 07:45:44;;;;;;;10.35;4.15;;;;;;;-7.57;57.38;100572.09;4998160;28;20124;-71
2022/12/07 07:48:08;;;;;;;9.90;5.10;;;;;;;-7.53;57.26;100573.00;4979697;28;20081;-71
2022/12/07 07:50:33;;;;;;;13.02;5.00;;;;;;;-6.82;58.03;100555.03;4962730;28;20073;-69
2022/12/07 07:52:58;;;;;;;4.88;4.15;;;;;;;-5.31;55.71;100552.22;4978737;28;20069;-69
2022/12/07 07:55:22;;;;;;;6.80;3.72;;;;;;;-3.75;52.81;100546.72;4996299;28;20102;-71
2022/12/07 07:57:47;;;;;;;9.02;4.63;;;;;;;-2.86;48.89;100537.94;4961013;28;20136;-70
2022/12/07 08:00:13;;;;;;;7.93;4.35;;;;;;;-1.97;47.85;100547.09;4996038;28;20129;-70
2022/12/07 08:02:39;;;;;;;11.18;4.97;;;;;;;-1.15;44.65;100538.59;4975358;28;20050;-70
2022/12/07 08:05:04;;;;;;;9.30;5.55;;;;;;;0.34;43.08;100536.66;4978558;28;20520;-71
2022/12/07 08:07:29;;;;;;;7.35;4.85;;;;;;;1.08;39.94;100531.91;4988904;28;20080;-70
2022/12/07 08:09:53;;;;;;;7.95;5.25;;;;;;;2.01;39.02;100542.25;4995986;28;20075;-64
2022/12/07 08:12:18;;;;;;;10.85;5.50;;;;;;;2.75;36.86;100531.69;4998709;28;20141;-65
2022/12/07 08:14:43;;;;;;;7.63;5.15;;;;;;;2.79;36.81;100526.31;4978656;28;20049;-65
2022/12/07 08:17:09;;;;;;;8.48;4.55;;;;;;;2.91;35.50;100519.88;4981981;28;20048;-69
2022/12/07 08:19:34;;;;;;;12.80;7.38;;;;;;;2.24;34.31;100539.09;4973168;28;20072;-70
2022/12/07 08:21:59;;;;;;;7.88;5.30;;;;;;;2.42;35.76;100536.03;4998104;28;20092;-70
2022/12/07 08:24:24;;;;;;;7.03;4.75;;;;;;;2.14;35.15;100528.78;5000844;28;20053;-63
2022/12/07 08:26:50;;;;;;;8.48;4.72;;;;;;;2.24;36.10;100529.44;4981735;28;20087;-65
2022/12/07 08:29:14;;;;;;;12.70;6.88;;;;;;;1.93;34.91;100529.25;4982742;28;20106;-65
2022/12/07 08:31:39;;;;;;;13.10;5.95;;;;;;;1.51;36.02;100545.94;4983559;28;20056;-65
2022/12/07 08:34:04;;;;;;;11.90;5.93;;;;;;;1.04;35.24;100524.97;4980004;28;20425;-64
2022/12/07 08:36:28;;;;;;;10.15;4.57;;;;;;;0.69;36.63;100525.59;4989281;28;20424;-66
2022/12/07 08:38:53;;;;;;;9.80;5.57;;;;;;;-0.10;37.39;100539.06;4998399;28;20075;-65
2022/12/07 08:41:18;;;;;;;7.00;3.85;;;;;;;0.55;39.81;100537.22;4973772;28;20046;-65
2022/12/07 08:43:43;;;;;;;10.43;5.30;;;;;;;0.53;37.12;100516.25;4992355;28;20045;-65
2022/12/07 08:46:10;;;;;;;11.48;6.20;;;;;;;0.48;36.80;100514.59;4997655;28;20504;-63
2022/12/07 08:48:40;;;;;;;8.80;3.10;;;;;;;0.79;38.02;100522.84;4998440;28;20041;-63
2022/12/07 08:51:05;;;;;;;21.00;8.07;;;;;;;-0.52;36.19;100509.94;4998673;28;20384;-63
2022/12/07 08:53:30;;;;;;;5.30;3.33;;;;;;;-0.47;38.63;100515.13;4980756;28;20459;-64
2022/12/07 08:55:56;;;;;;;7.75;4.07;;;;;;;-0.45;38.46;100503.72;4978489;28;20037;-66
2022/12/07 08:58:21;;;;;;;11.55;4.93;;;;;;;-0.55;37.67;100511.72;4998787;28;20052;-63
2022/12/07 09:00:45;;;;;;;6.80;4.50;;;;;;;-0.68;37.62;100507.56;4980351;28;20041;-65
2022/12/07 09:03:10;;;;;;;10.05;5.03;;;;;;;-1.50;38.89;100501.44;4980792;28;20080;-64
2022/12/07 09:05:35;;;;;;;10.93;5.35;;;;;;;-1.79;39.04;100506.00;4980419;28;20426;-65
2022/12/07 09:08:01;;;;;;;9.80;4.40;;;;;;;-1.31;39.10;100508.22;4996300;28;20045;-66
2022/12/07 09:10:26;;;;;;;12.27;6.18;;;;;;;-1.19;38.94;100515.94;4998463;28;20041;-65
2022/12/07 09:12:51;;;;;;;12.98;5.72;;;;;;;-1.37;37.92;100515.28;4998406;28;20052;-64
2022/12/07 09:15:15;;;;;;;10.15;4.85;;;;;;;-1.45;38.19;100507.47;4979878;28;20033;-64
2022/12/07 09:17:40;;;;;;;8.30;5.45;;;;;;;-1.04;38.63;100504.47;4963753;28;20120;-66
2022/12/07 09:20:06;;;;;;;8.60;4.90;;;;;;;-0.20;37.54;100492.94;4997500;28;20045;-65
2022/12/07 09:22:31;;;;;;;8.27;4.53;;;;;;;0.68;36.37;100481.00;4997753;28;20037;-64
2022/12/07 09:24:57;;;;;;;6.95;4.60;;;;;;;1.47;35.27;100489.13;4997495;28;20042;-65
2022/12/07 09:27:22;;;;;;;6.75;4.13;;;;;;;1.92;34.24;100482.00;4997228;28;20068;-63
2022/12/07 09:29:46;;;;;;;8.68;4.97;;;;;;;1.99;34.22;100481.81;4998163;28;20041;-64
2022/12/07 09:32:11;;;;;;;9.80;5.20;;;;;;;1.47;34.16;100475.97;4979353;28;20365;-64
2022/12/07 09:34:35;;;;;;;7.53;4.53;;;;;;;0.73;34.92;100476.53;4997120;28;20029;-64
2022/12/07 09:37:02;;;;;;;7.38;3.85;;;;;;;0.42;35.92;100468.38;4997304;28;20041;-65
2022/12/07 09:39:27;;;;;;;9.18;4.47;;;;;;;0.17;36.49;100470.53;4998303;28;20214;-65
2022/12/07 09:41:52;;;;;;;10.45;4.43;;;;;;;0.54;34.96;100457.66;4963939;28;20403;-65
2022/12/07 09:44:24;;;;;;;5.45;3.08;;;;;;;0.46;34.95;100463.91;4976495;28;20423;-64
2022/12/07 09:46:50;;;;;;;9.30;4.00;;;;;;;0.09;35.40;100475.03;4987570;28;20523;-67
2022/12/07 09:49:19;;;;;;;8.48;4.53;;;;;;;-0.26;35.94;100469.44;4998052;28;20049;-65
2022/12/07 09:51:44;;;;;;;8.40;4.63;;;;;;;-0.32;35.76;100472.13;4976992;28;20044;-65
2022/12/07 09:54:13;;;;;;;12.20;5.57;;;;;;;-0.64;36.10;100457.72;4993294;28;20041;-65
2022/12/07 09:56:38;;;;;;;6.30;4.00;;;;;;;-0.49;36.71;100467.16;4998123;28;20056;-66
2022/12/07 09:59:03;;;;;;;9.13;4.93;;;;;;;-0.29;36.18;100452.00;4997029;28;20053;-66
2022/12/07 10:01:31;;;;;;;6.13;3.42;;;;;;;-0.01;36.41;100453.34;4960826;28;20038;-67
2022/12/07 10:04:10;;;;;;;3.17;2.22;;;;;;;-0.20;35.13;100451.00;4990387;28;20041;-64
2022/12/07 10:06:34;;;;;;;7.20;4.18;;;;;;;-0.77;35.58;100453.53;4964571;28;20400;-66
2022/12/07 10:08:59;;;;;;;9.55;3.45;;;;;;;-0.81;36.06;100450.09;4972016;28;20459;-72
2022/12/07 10:11:23;;;;;;;6.70;3.10;;;;;;;-1.20;36.47;100447.94;5001623;28;20097;-74
2022/12/07 10:13:53;;;;;;;6.10;3.95;;;;;;;-1.64;36.72;100451.00;4979628;28;20037;-71
2022/12/07 10:16:23;;;;;;;12.63;5.47;;;;;;;-1.66;37.17;100445.78;4998389;28;20041;-68
2022/12/07 10:18:48;;;;;;;9.55;4.43;;;;;;;-1.28;36.94;100450.66;4996802;28;20132;-68
2022/12/07 10:21:16;;;;;;;9.10;2.85;;;;;;;-0.99;36.11;100446.81;4998201;28;20133;-68
2022/12/07 10:24:02;;;;;;;3.00;1.80;;;;;;;-1.72;36.95;100438.03;4999161;28;20041;-70
2022/12/07 10:26:45;;;;;;;8.95;4.57;;;;;;;-2.80;38.60;100457.03;4979962;28;20045;-69
2022/12/07 10:29:47;;;;;;;5.00;3.42;;;;;;;-3.26;39.55;100458.91;4998072;28;20396;-73
2022/12/07 10:32:14;;;;;;;7.68;3.80;;;;;;;-4.05;40.67;100457.28;4917025;29;20053;-71
2022/12/07 10:34:39;;;;;;;6.00;3.65;;;;;;;-4.16;40.93;100452.91;4933213;28;20053;-69
2022/12/07 10:37:25;;;;;;;8.45;4.32;;;;;;;-4.32;41.57;100454.66;4912175;28;20047;-69
2022/12/07 10:39:52;;;;;;;5.68;2.67;;;;;;;-4.72;41.79;100460.63;4934473;28;20043;-69
2022/12/07 10:42:20;;;;;;;6.43;4.38;;;;;;;-4.87;42.89;100448.44;4918875;28;20474;-73
2022/12/07 10:44:45;;;;;;;8.88;4.90;;;;;;;-5.26;43.25;100438.75;4920432;28;20046;-71
2022/12/07 10:47:44;;;;;;;7.50;4.05;;;;;;;-5.29;44.25;100438.72;4936558;28;20050;-70
2022/12/07 10:50:27;;;;;;;10.05;3.83;;;;;;;-5.44;44.35;100430.88;4897360;29;20048;-71
2022/12/07 10:53:20;;;;;;;14.50;6.18;;;;;;;-5.68;45.08;100453.22;4898630;29;20047;-71
2022/12/07 10:56:03;;;;;;;10.23;5.82;;;;;;;-5.77;46.17;100435.00;4916134;29;20047;-72
2022/12/07 10:59:18;;;;;;;8.80;4.97;;;;;;;-5.73;45.59;100435.88;4916406;29;20081;-74
2022/12/07 11:02:19;;;;;;;12.48;6.03;;;;;;;-5.77;45.89;100423.72;4899552;29;20056;-73
2022/12/07 11:05:05;;;;;;;11.05;5.30;;;;;;;-5.89;46.13;100419.34;4899231;28;20048;-71
2022/12/07 11:07:37;;;;;;;7.60;3.60;;;;;;;-5.89;46.73;100414.16;4918107;28;20051;-72
2022/12/07 11:10:10;;;;;;;9.50;4.93;;;;;;;-5.97;46.40;100421.00;4916323;28;20129;-71
2022/12/07 11:12:47;;;;;;;9.30;3.63;;;;;;;-5.75;46.25;100417.66;4934679;28;20055;-70
2022/12/07 11:15:17;;;;;;;3.90;2.33;;;;;;;-5.66;46.01;100406.50;4899846;28;20038;-71
2022/12/07 11:18:12;;;;;;;10.13;5.03;;;;;;;-5.80;46.53;100414.19;4935195;28;20050;-70
2022/12/07 11:20:56;;;;;;;8.03;5.00;;;;;;;-5.97;46.96;100410.63;4934103;28;20094;-71
2022/12/07 11:23:32;;;;;;;8.18;5.10;;;;;;;-5.82;46.58;100425.41;4938953;28;20348;-71
2022/12/07 11:26:25;;;;;;;8.73;5.10;;;;;;;-5.84;47.07;100412.41;4969689;28;20045;-70
2022/12/07 11:29:18;;;;;;;10.48;4.20;;;;;;;-6.03;46.98;100408.00;4986858;28;20049;-72
2022/12/07 11:32:33;;;;;;;11.50;5.47;;;;;;;-6.31;47.96;100410.34;4974622;28;20088;-72
2022/12/07 11:35:26;;;;;;;8.07;4.03;;;;;;;-6.47;48.42;100405.03;4933455;28;20059;-72
2022/12/07 11:37:58;;;;;;;3.90;2.33;;;;;;;-6.42;48.17;100414.59;4936955;28;20050;-70
2022/12/07 11:40:34;;;;;;;8.65;4.35;;;;;;;-6.14;48.02;100388.88;4938348;28;20139;-72